Time;durP1;ratioP1;P1;durP2;ratioP2;P2;SDS_P1;SDS_P2;PMS_P1;PMS_P2;Temp;Humidity;BMP_temperature;BMP_pressure;BME280_temperature;BME280_humidity;BME280_pressure;Samples;Min_cycle;Max_cycle;Signal;HPM_P1;HPM_P2
2023/09/27 00:00:11;;;;;;;12.07;5.90;;;23.10;81.00;;;;;;5030420;28;20057;-72
2023/09/27 00:03:18;;;;;;;18.70;5.38;;;23.40;81.60;;;;;;5029961;28;20041;-73
2023/09/27 00:06:25;;;;;;;11.50;5.20;;;23.40;79.20;;;;;;5030031;28;20044;-73
2023/09/27 00:09:31;;;;;;;11.02;5.10;;;23.40;79.30;;;;;;5030334;28;20057;-73
2023/09/27 00:12:35;;;;;;;11.57;4.93;;;24.00;79.00;;;;;;5030382;28;20060;-73
2023/09/27 00:15:40;;;;;;;14.00;5.05;;;23.70;79.10;;;;;;5029992;28;20044;-73
2023/09/27 00:18:45;;;;;;;12.88;5.68;;;23.70;79.90;;;;;;5029653;28;20040;-73
2023/09/27 00:21:49;;;;;;;8.57;4.82;;;23.60;79.20;;;;;;5029953;28;20064;-73
2023/09/27 00:24:53;;;;;;;11.55;4.90;;;23.60;78.70;;;;;;5029962;28;20064;-73
2023/09/27 00:27:57;;;;;;;9.20;5.53;;;23.60;78.50;;;;;;5031443;28;20052;-73
2023/09/27 00:31:02;;;;;;;9.80;5.55;;;23.70;78.90;;;;;;5021060;28;20056;-73
2023/09/27 00:34:05;;;;;;;10.23;5.32;;;23.60;79.40;;;;;;5033067;28;20140;-73
2023/09/27 00:37:09;;;;;;;13.45;5.40;;;23.60;79.30;;;;;;5033667;28;20048;-73
2023/09/27 00:40:14;;;;;;;13.02;5.20;;;22.10;79.40;;;;;;5032838;28;20056;-73
2023/09/27 00:43:29;;;;;;;9.07;5.18;;;23.30;80.60;;;;;;5020501;28;20036;-74
2023/09/27 00:46:33;;;;;;;10.40;5.47;;;23.40;79.10;;;;;;5032620;28;20048;-73
2023/09/27 00:49:39;;;;;;;13.00;6.32;;;23.30;81.60;;;;;;5032762;28;20052;-72
2023/09/27 00:52:44;;;;;;;9.25;6.78;;;23.10;83.50;;;;;;5020371;28;20056;-73
2023/09/27 00:55:49;;;;;;;10.88;5.38;;;22.80;83.80;;;;;;5032761;28;20053;-73
2023/09/27 00:58:53;;;;;;;12.18;5.20;;;22.70;81.20;;;;;;5019943;28;20044;-73
2023/09/27 01:01:57;;;;;;;10.25;5.50;;;22.90;79.80;;;;;;5032583;28;20053;-73
2023/09/27 01:05:01;;;;;;;9.02;4.30;;;23.20;79.10;;;;;;5019948;28;20040;-73
2023/09/27 01:08:05;;;;;;;9.75;5.07;;;23.30;78.80;;;;;;5032129;28;20048;-73
2023/09/27 01:11:09;;;;;;;11.93;5.25;;;23.30;79.00;;;;;;5020116;28;20053;-73
2023/09/27 01:14:13;;;;;;;13.57;4.90;;;23.30;78.80;;;;;;5032634;28;20476;-73
2023/09/27 01:17:18;;;;;;;9.75;5.15;;;23.30;79.40;;;;;;5032290;28;20496;-73
2023/09/27 01:20:23;;;;;;;9.45;5.40;;;23.20;80.10;;;;;;5019935;28;20040;-73
2023/09/27 01:23:28;;;;;;;10.70;5.65;;;23.10;80.50;;;;;;5008546;28;20504;-73
2023/09/27 01:26:36;;;;;;;10.77;6.90;;;23.10;81.90;;;;;;5020025;28;20045;-73
2023/09/27 01:29:40;;;;;;;16.02;7.43;;;22.90;83.30;;;;;;5032120;28;20044;-73
2023/09/27 01:32:44;;;;;;;14.27;6.60;;;22.80;85.50;;;;;;5032207;28;20044;-73
2023/09/27 01:35:48;;;;;;;10.40;5.90;;;22.50;85.40;;;;;;5031921;28;20393;-73
2023/09/27 01:38:53;;;;;;;10.90;5.75;;;22.40;83.80;;;;;;5030936;28;20064;-73
2023/09/27 01:41:57;;;;;;;13.93;6.78;;;22.50;84.50;;;;;;5019300;28;20572;-72
2023/09/27 01:45:03;;;;;;;14.80;7.70;;;22.50;85.30;;;;;;5019488;28;20117;-73
2023/09/27 01:48:07;;;;;;;14.18;7.47;;;22.50;86.10;;;;;;5031430;28;20052;-73
2023/09/27 01:51:14;;;;;;;11.30;7.07;;;22.30;86.60;;;;;;5019094;28;20045;-73
2023/09/27 01:54:18;;;;;;;14.88;7.57;;;22.30;86.80;;;;;;5019523;28;20052;-72
2023/09/27 01:57:22;;;;;;;11.40;7.15;;;22.20;86.60;;;;;;5031544;28;20045;-72
2023/09/27 02:00:26;;;;;;;11.93;6.30;;;22.20;86.40;;;;;;5031363;28;20056;-73
2023/09/27 02:03:30;;;;;;;14.00;6.57;;;22.20;86.80;;;;;;5019216;28;20072;-73
2023/09/27 02:06:34;;;;;;;14.73;6.38;;;22.10;86.20;;;;;;5019343;28;20048;-73
2023/09/27 02:09:38;;;;;;;11.85;6.80;;;22.10;86.80;;;;;;5019333;28;20048;-73
2023/09/27 02:12:42;;;;;;;12.75;6.30;;;22.00;86.70;;;;;;5019294;28;20053;-73
2023/09/27 02:15:46;;;;;;;9.52;6.43;;;22.00;87.10;;;;;;5019270;28;20053;-73
2023/09/27 02:18:50;;;;;;;9.07;5.60;;;21.90;87.50;;;;;;5018964;28;20387;-72
2023/09/27 02:21:54;;;;;;;10.45;6.57;;;21.90;87.40;;;;;;5031349;28;20049;-72
2023/09/27 02:24:59;;;;;;;14.15;6.28;;;22.00;86.80;;;;;;5031198;28;20044;-73
2023/09/27 02:28:03;;;;;;;11.73;6.53;;;22.00;86.80;;;;;;5030794;28;20508;-73
2023/09/27 02:31:10;;;;;;;11.27;6.32;;;22.00;85.60;;;;;;5030846;28;20373;-72
2023/09/27 02:34:14;;;;;;;15.02;5.93;;;21.90;86.10;;;;;;5030978;28;20507;-73
2023/09/27 02:37:20;;;;;;;12.30;6.10;;;21.70;85.70;;;;;;5018140;28;20052;-73
2023/09/27 02:40:24;;;;;;;11.38;5.72;;;21.80;86.10;;;;;;5030619;28;20080;-72
2023/09/27 02:43:28;;;;;;;14.15;6.57;;;21.90;86.30;;;;;;5030930;28;20040;-73
2023/09/27 02:46:32;;;;;;;11.55;6.05;;;21.90;86.10;;;;;;5018485;28;20145;-73
2023/09/27 02:49:36;;;;;;;10.80;6.13;;;21.80;86.60;;;;;;5018132;28;20076;-72
2023/09/27 02:52:40;;;;;;;10.65;6.18;;;21.80;86.80;;;;;;5018529;28;20048;-73
2023/09/27 02:55:44;;;;;;;11.02;6.00;;;21.80;86.30;;;;;;5030625;28;20044;-73
2023/09/27 02:58:48;;;;;;;9.48;5.28;;;21.70;86.40;;;;;;5018459;28;20405;-73
2023/09/27 03:01:55;;;;;;;11.98;5.60;;;21.80;85.70;;;;;;5030649;28;20056;-73
2023/09/27 03:04:59;;;;;;;16.55;5.35;;;21.80;85.30;;;;;;5030602;28;20040;-73
2023/09/27 03:08:04;;;;;;;10.18;5.93;;;21.80;85.70;;;;;;5018315;28;20091;-72
2023/09/27 03:11:09;;;;;;;6.35;4.80;;;21.90;85.10;;;;;;5018375;28;20060;-73
2023/09/27 03:14:15;;;;;;;10.90;5.38;;;22.00;83.40;;;;;;5017964;28;20044;-73
2023/09/27 03:17:20;;;;;;;12.52;5.15;;;22.50;83.40;;;;;;5030397;28;20516;-73
2023/09/27 03:20:24;;;;;;;13.23;5.47;;;22.00;83.90;;;;;;5017802;28;20168;-73
2023/09/27 03:23:29;;;;;;;12.32;4.88;;;21.90;84.20;;;;;;5030571;28;20044;-73
2023/09/27 03:26:36;;;;;;;8.57;5.22;;;21.80;84.50;;;;;;5030089;28;20044;-73
2023/09/27 03:29:39;;;;;;;11.82;5.43;;;21.90;84.00;;;;;;5030203;28;20060;-72
2023/09/27 03:32:45;;;;;;;6.00;5.07;;;21.80;84.60;;;;;;5006934;28;20052;-73
2023/09/27 03:35:49;;;;;;;8.82;5.57;;;21.80;84.40;;;;;;5030191;28;20040;-72
2023/09/27 03:38:56;;;;;;;10.55;5.57;;;21.70;85.10;;;;;;5030067;28;20044;-73
2023/09/27 03:41:59;;;;;;;9.07;5.18;;;21.70;85.40;;;;;;5030267;28;20052;-72
2023/09/27 03:45:05;;;;;;;14.45;5.57;;;21.80;85.30;;;;;;5017665;28;20056;-72
2023/09/27 03:48:09;;;;;;;21.27;6.65;;;21.70;86.00;;;;;;5017414;28;20100;-73
2023/09/27 03:51:22;;;;;;;11.27;5.38;;;21.60;85.80;;;;;;5017371;28;20160;-72
2023/09/27 03:54:26;;;;;;;13.23;6.20;;;21.60;86.00;;;;;;5029924;28;20117;-73
2023/09/27 03:57:30;;;;;;;10.55;5.32;;;21.60;84.80;;;;;;5029893;28;20144;-73
2023/09/27 04:00:36;;;;;;;17.08;6.15;;;21.60;85.40;;;;;;5017429;28;20056;-73
2023/09/27 04:03:39;;;;;;;16.52;5.95;;;21.70;85.10;;;;;;5033140;28;20472;-73
2023/09/27 04:06:44;;;;;;;11.85;5.50;;;21.70;84.70;;;;;;5021101;28;20052;-73
2023/09/27 04:09:48;;;;;;;10.45;5.60;;;21.60;84.80;;;;;;5021127;28;20045;-73
2023/09/27 04:12:52;;;;;;;14.02;5.80;;;21.60;83.50;;;;;;5033536;28;20041;-73
2023/09/27 04:15:56;;;;;;;10.43;5.93;;;21.70;84.50;;;;;;5020911;28;20060;-73
2023/09/27 04:19:00;;;;;;;19.45;5.95;;;21.70;84.50;;;;;;5033333;28;20417;-73
2023/09/27 04:22:04;;;;;;;25.92;6.53;;;21.70;84.50;;;;;;5033335;28;20507;-73
2023/09/27 04:25:09;;;;;;;12.82;5.72;;;21.60;84.90;;;;;;5033147;28;20044;-73
2023/09/27 04:28:13;;;;;;;15.48;6.05;;;21.60;85.20;;;;;;5033254;28;20476;-73
2023/09/27 04:31:17;;;;;;;8.32;5.90;;;21.50;85.50;;;;;;5033327;28;20102;-72
2023/09/27 04:34:21;;;;;;;15.68;6.15;;;21.60;85.70;;;;;;5033251;28;20048;-73
2023/09/27 04:37:25;;;;;;;10.80;5.88;;;21.60;85.40;;;;;;5033162;28;20524;-73
2023/09/27 04:40:29;;;;;;;15.55;6.00;;;21.50;85.30;;;;;;5033062;28;20076;-73
2023/09/27 04:43:33;;;;;;;10.52;5.93;;;21.50;84.90;;;;;;5033041;28;20052;-73
2023/09/27 04:46:36;;;;;;;14.30;6.70;;;21.50;85.10;;;;;;5032667;28;20059;-73
2023/09/27 04:49:40;;;;;;;19.05;8.10;;;21.50;85.00;;;;;;5032760;28;20139;-72
2023/09/27 04:52:44;;;;;;;19.30;6.95;;;21.40;85.30;;;;;;5032640;28;20052;-73
2023/09/27 04:55:49;;;;;;;15.00;6.82;;;21.40;85.80;;;;;;5020128;28;20040;-73
2023/09/27 04:58:56;;;;;;;15.05;6.43;;;21.40;85.90;;;;;;5032837;28;20064;-73
2023/09/27 05:02:00;;;;;;;15.82;6.90;;;21.50;85.30;;;;;;5020619;28;20080;-73
2023/09/27 05:05:05;;;;;;;17.48;7.20;;;21.50;86.30;;;;;;5032552;28;20496;-73
2023/09/27 05:08:09;;;;;;;12.52;7.40;;;21.50;85.80;;;;;;5020070;28;20045;-74
2023/09/27 05:11:13;;;;;;;17.73;6.13;;;21.60;85.60;;;;;;5032488;28;20088;-73
2023/09/27 05:14:17;;;;;;;16.42;6.72;;;21.70;85.70;;;;;;5031228;28;20053;-73
2023/09/27 05:17:21;;;;;;;11.18;5.88;;;21.70;84.60;;;;;;5032349;28;20044;-74
2023/09/27 05:20:24;;;;;;;17.70;8.18;;;21.80;83.70;;;;;;5031994;28;20377;-74
2023/09/27 05:23:28;;;;;;;17.35;7.78;;;21.80;84.00;;;;;;5032229;28;20496;-74
2023/09/27 05:26:32;;;;;;;20.58;9.45;;;21.90;83.80;;;;;;5031876;28;20044;-73
2023/09/27 05:29:37;;;;;;;20.45;7.97;;;22.10;84.00;;;;;;5031615;28;20044;-73
2023/09/27 05:32:46;;;;;;;18.52;8.15;;;22.50;82.80;;;;;;5032275;28;20105;-68
2023/09/27 05:35:50;;;;;;;21.90;6.93;;;22.90;82.30;;;;;;5019725;28;20515;-68
2023/09/27 05:38:54;;;;;;;17.58;7.72;;;23.50;80.80;;;;;;5032158;28;20052;-68
2023/09/27 05:41:58;;;;;;;25.05;7.30;;;24.10;80.20;;;;;;5031802;28;20064;-68
2023/09/27 05:45:04;;;;;;;18.52;6.15;;;24.70;78.70;;;;;;5031704;28;20393;-68
2023/09/27 05:48:07;;;;;;;25.80;6.97;;;24.90;77.80;;;;;;5030768;28;20401;-67
2023/09/27 05:51:12;;;;;;;17.52;5.95;;;25.40;76.70;;;;;;5030444;28;20060;-68
2023/09/27 05:54:19;;;;;;;9.95;6.05;;;26.30;73.40;;;;;;5030730;28;20044;-66
2023/09/27 05:57:23;;;;;;;15.85;6.78;;;26.30;74.60;;;;;;5031101;28;20044;-67
2023/09/27 06:00:32;;;;;;;15.57;6.20;;;26.50;74.50;;;;;;5031118;28;20050;-67
2023/09/27 06:03:37;;;;;;;19.75;9.05;;;26.70;73.20;;;;;;5019468;28;20044;-67
2023/09/27 06:06:41;;;;;;;13.13;6.72;;;27.20;73.80;;;;;;5031700;28;20036;-68
2023/09/27 06:09:45;;;;;;;18.77;6.95;;;27.30;73.60;;;;;;5031595;28;20056;-67
2023/09/27 06:12:49;;;;;;;10.85;6.25;;;27.30;73.30;;;;;;5031834;28;20044;-67
2023/09/27 06:15:54;;;;;;;17.00;6.50;;;27.70;73.00;;;;;;5031176;28;20052;-67
2023/09/27 06:18:58;;;;;;;17.02;6.63;;;27.90;73.00;;;;;;5029878;28;20048;-65
2023/09/27 06:22:05;;;;;;;20.13;7.10;;;28.30;71.80;;;;;;5030911;28;20072;-66
2023/09/27 06:25:09;;;;;;;11.52;5.90;;;28.30;71.30;;;;;;5030120;28;20071;-67
2023/09/27 06:28:14;;;;;;;13.18;6.43;;;28.20;70.30;;;;;;5030612;28;20036;-68
2023/09/27 06:31:18;;;;;;;11.75;6.40;;;27.90;71.10;;;;;;5030506;28;20052;-69
2023/09/27 06:34:22;;;;;;;13.30;6.18;;;27.70;72.60;;;;;;5030931;28;20052;-69
2023/09/27 06:37:28;;;;;;;21.45;6.35;;;27.40;72.20;;;;;;5030810;28;20052;-68
2023/09/27 06:40:32;;;;;;;11.55;6.65;;;27.40;73.50;;;;;;5030757;28;20057;-68
2023/09/27 06:43:36;;;;;;;16.17;6.53;;;27.40;73.00;;;;;;5030734;28;20044;-69
2023/09/27 06:46:40;;;;;;;17.48;6.38;;;27.30;73.80;;;;;;5018055;28;20044;-69
2023/09/27 06:49:43;;;;;;;18.77;6.85;;;27.30;73.70;;;;;;5030436;28;20048;-67
2023/09/27 06:52:48;;;;;;;19.20;7.20;;;27.40;73.90;;;;;;5030986;28;20056;-69
2023/09/27 06:55:53;;;;;;;20.90;7.43;;;27.60;74.40;;;;;;5030302;28;20044;-70
2023/09/27 06:58:57;;;;;;;18.02;6.80;;;27.60;73.50;;;;;;5030624;28;20048;-69
2023/09/27 07:02:02;;;;;;;17.77;6.10;;;27.50;72.50;;;;;;5030607;28;20539;-66
2023/09/27 07:05:07;;;;;;;12.90;6.80;;;27.60;71.30;;;;;;5030669;28;20036;-68
2023/09/27 07:08:11;;;;;;;15.45;6.65;;;27.60;71.10;;;;;;5030453;28;20393;-68
2023/09/27 07:11:15;;;;;;;16.30;5.88;;;27.50;71.70;;;;;;5030065;28;20095;-67
2023/09/27 07:14:20;;;;;;;15.95;6.38;;;27.60;71.50;;;;;;5018189;28;20052;-69
2023/09/27 07:17:25;;;;;;;19.30;6.75;;;27.70;71.50;;;;;;5194469;22;20085;-60
2023/09/27 07:20:32;;;;;;;14.98;6.20;;;27.70;70.10;;;;;;5010249;28;20065;-60
2023/09/27 07:23:37;;;;;;;18.17;6.60;;;27.60;70.80;;;;;;5010062;28;20049;-60
2023/09/27 07:26:42;;;;;;;13.75;8.02;;;27.70;71.90;;;;;;5009326;28;20057;-61
2023/09/27 07:29:48;;;;;;;14.05;8.07;;;27.80;74.00;;;;;;4998320;28;20503;-60
2023/09/27 07:32:52;;;;;;;12.85;7.47;;;27.80;73.90;;;;;;5010243;28;20049;-61
2023/09/27 07:35:55;;;;;;;17.45;7.63;;;27.70;74.20;;;;;;5010179;28;20053;-61
2023/09/27 07:39:03;;;;;;;15.38;7.38;;;27.80;73.30;;;;;;5013972;28;20057;-60
2023/09/27 07:42:08;;;;;;;32.30;8.25;;;27.80;74.70;;;;;;5014039;28;20061;-61
2023/09/27 07:45:32;;;;;;;13.23;6.93;;;27.60;72.30;;;;;;5013652;28;20041;-60
2023/09/27 07:48:39;;;;;;;17.80;7.57;;;;;;;;;;5013899;28;20052;-61
2023/09/27 07:55:17;;;;;;;18.38;7.70;;;27.40;70.70;;;;;;4935134;29;20059;-57
2023/09/27 07:58:21;;;;;;;11.98;7.40;;;27.50;70.30;;;;;;4936397;29;20055;-57
2023/09/27 08:01:28;;;;;;;17.00;8.00;;;27.60;69.80;;;;;;4936607;29;20048;-57
2023/09/27 08:04:32;;;;;;;17.58;8.05;;;27.60;69.40;;;;;;4935793;29;20055;-56
2023/09/27 08:07:37;;;;;;;16.92;7.40;;;27.50;68.70;;;;;;4936493;29;20047;-58
2023/09/27 08:10:47;;;;;;;16.52;8.48;;;27.50;69.50;;;;;;4936482;29;20047;-58
2023/09/27 08:13:51;;;;;;;14.88;8.00;;;27.50;69.40;;;;;;4936086;29;20042;-60
2023/09/27 08:16:55;;;;;;;15.27;8.20;;;27.60;69.00;;;;;;4936565;29;20070;-59
2023/09/27 08:20:09;;;;;;;14.10;7.93;;;27.60;67.30;;;;;;4936550;29;20055;-64
2023/09/27 08:23:13;;;;;;;17.63;8.10;;;27.60;68.10;;;;;;4935886;29;20054;-63
2023/09/27 08:26:17;;;;;;;20.27;7.97;;;27.80;68.50;;;;;;4935355;29;20061;-58
2023/09/27 08:29:21;;;;;;;13.73;8.13;;;27.70;69.00;;;;;;4936076;29;20051;-58
2023/09/27 08:32:25;;;;;;;23.60;8.18;;;27.80;69.40;;;;;;4935940;29;20047;-58
2023/09/27 08:35:29;;;;;;;13.63;8.23;;;27.80;68.80;;;;;;4935886;29;20050;-58
2023/09/27 08:38:35;;;;;;;16.23;8.23;;;27.80;69.00;;;;;;4936051;29;20054;-58
2023/09/27 08:41:40;;;;;;;15.13;8.35;;;27.80;68.10;;;;;;4935845;29;20066;-58
2023/09/27 08:44:45;;;;;;;20.02;8.40;;;27.80;69.90;;;;;;4935900;29;20047;-57
2023/09/27 08:47:50;;;;;;;19.83;7.75;;;27.50;67.80;;;;;;4935657;29;20047;-57
2023/09/27 08:50:55;;;;;;;27.75;8.25;;;28.00;68.80;;;;;;4935732;29;20047;-57
2023/09/27 08:54:00;;;;;;;15.77;7.85;;;28.10;68.80;;;;;;4946551;29;20058;-57
2023/09/27 08:57:05;;;;;;;21.92;8.98;;;28.20;68.80;;;;;;4954506;29;20095;-57
2023/09/27 09:00:13;;;;;;;19.63;8.82;;;28.10;67.70;;;;;;4954695;29;20469;-57
2023/09/27 09:03:19;;;;;;;17.63;8.02;;;28.20;68.30;;;;;;4954391;29;20050;-58
2023/09/27 09:06:24;;;;;;;19.98;8.25;;;28.00;66.80;;;;;;4954711;29;20058;-59
2023/09/27 09:09:30;;;;;;;26.13;7.15;;;28.00;67.20;;;;;;4954132;29;20050;-58
2023/09/27 09:12:37;;;;;;;17.58;7.57;;;28.60;67.00;;;;;;4954117;29;20568;-58
2023/09/27 09:15:45;;;;;;;15.15;7.43;;;28.30;66.30;;;;;;4954525;29;20199;-58
2023/09/27 09:18:52;;;;;;;16.30;8.13;;;28.30;66.00;;;;;;4954551;29;20150;-58
2023/09/27 09:22:11;;;;;;;11.45;7.18;;;28.30;66.50;;;;;;4954087;28;20066;-58
2023/09/27 09:25:15;;;;;;;16.38;7.93;;;28.30;66.90;;;;;;4954360;29;20058;-58
2023/09/27 09:28:20;;;;;;;15.07;7.35;;;28.40;65.60;;;;;;4954208;29;20066;-58
2023/09/27 09:31:28;;;;;;;15.25;8.05;;;28.70;65.60;;;;;;4953986;28;20394;-57
2023/09/27 09:34:41;;;;;;;15.93;7.97;;;28.70;66.00;;;;;;4954192;28;20216;-57
2023/09/27 09:37:47;;;;;;;17.80;8.13;;;28.80;65.80;;;;;;4953864;29;20534;-58
2023/09/27 09:41:00;;;;;;;14.02;7.40;;;28.80;65.60;;;;;;4953480;28;20065;-58
2023/09/27 09:44:19;;;;;;;13.57;7.45;;;28.90;66.00;;;;;;4953263;29;20049;-58
2023/09/27 09:47:23;;;;;;;20.10;7.57;;;29.00;65.00;;;;;;4953443;29;20370;-58
2023/09/27 09:50:29;;;;;;;16.65;7.50;;;29.10;65.70;;;;;;4953686;28;20074;-58
2023/09/27 09:53:40;;;;;;;17.10;8.35;;;29.10;65.30;;;;;;4953468;29;20058;-58
2023/09/27 09:56:49;;;;;;;13.65;7.80;;;29.10;65.10;;;;;;4953794;29;20192;-59
2023/09/27 10:00:03;;;;;;;15.95;6.97;;;29.20;65.00;;;;;;4953072;28;20066;-59
2023/09/27 10:03:19;;;;;;;21.00;8.15;;;29.40;64.90;;;;;;4952631;29;20050;-59
2023/09/27 10:06:23;;;;;;;16.20;7.40;;;29.30;64.90;;;;;;4953495;29;20054;-59
2023/09/27 10:09:28;;;;;;;19.23;7.45;;;29.40;65.20;;;;;;4953631;28;20047;-58
2023/09/27 10:12:34;;;;;;;15.10;6.65;;;29.50;65.90;;;;;;4952962;29;20046;-59
2023/09/27 10:15:40;;;;;;;20.08;7.15;;;29.70;63.70;;;;;;4953394;29;20054;-59
2023/09/27 10:18:46;;;;;;;13.32;7.35;;;29.60;63.70;;;;;;4953120;29;20390;-59
2023/09/27 10:22:04;;;;;;;14.23;6.97;;;29.60;64.30;;;;;;4953164;28;20514;-59
2023/09/27 10:25:35;;;;;;;15.27;7.38;;;29.50;64.90;;;;;;4953361;29;20050;-59
2023/09/27 10:29:16;;;;;;;15.57;7.18;;;29.50;64.50;;;;;;4953212;29;20054;-59
2023/09/27 10:32:20;;;;;;;;;;;29.50;64.80;;;;;;4942849;29;20050;-59
2023/09/27 10:35:25;;;;;;;15.55;6.70;;;29.50;63.60;;;;;;4953136;29;19910;-58
2023/09/27 10:38:41;;;;;;;16.40;6.95;;;29.50;64.40;;;;;;4953119;29;20411;-59
2023/09/27 10:41:46;;;;;;;20.48;7.90;;;29.50;63.80;;;;;;4952873;29;20071;-58
2023/09/27 10:44:51;;;;;;;14.57;6.82;;;29.60;64.70;;;;;;4952735;29;20046;-58
2023/09/27 10:47:57;;;;;;;14.57;7.30;;;29.60;65.10;;;;;;4952765;29;20371;-59
2023/09/27 10:51:00;;;;;;;12.70;7.72;;;29.60;64.50;;;;;;4952711;29;20042;-59
2023/09/27 10:54:08;;;;;;;13.25;7.75;;;29.70;64.50;;;;;;4952466;28;20054;-58
2023/09/27 10:57:14;;;;;;;16.13;8.13;;;29.70;64.90;;;;;;4952618;29;20046;-58
2023/09/27 11:00:21;;;;;;;16.52;7.53;;;29.70;65.60;;;;;;4952497;29;20497;-58
2023/09/27 11:03:25;;;;;;;14.15;7.30;;;29.80;66.00;;;;;;4952452;29;20689;-59
2023/09/27 11:06:31;;;;;;;15.43;7.20;;;29.80;65.70;;;;;;4950970;29;20045;-58
2023/09/27 11:09:44;;;;;;;18.17;6.95;;;29.70;65.60;;;;;;4951531;28;20050;-58
2023/09/27 11:12:48;;;;;;;14.68;7.30;;;29.60;66.10;;;;;;4952055;28;20066;-59
2023/09/27 11:15:52;;;;;;;13.50;7.10;;;29.60;66.60;;;;;;4952723;29;20050;-59
2023/09/27 11:18:56;;;;;;;14.18;6.93;;;29.40;65.00;;;;;;4952444;28;20050;-58
2023/09/27 11:22:00;;;;;;;14.45;7.45;;;29.40;66.00;;;;;;4952359;29;20058;-58
2023/09/27 11:25:34;;;;;;;12.80;6.30;;;29.50;66.50;;;;;;4952434;28;20062;-59
2023/09/27 11:28:39;;;;;;;15.30;6.95;;;29.50;65.30;;;;;;4952128;28;20046;-57
2023/09/27 11:31:43;;;;;;;16.42;7.30;;;29.50;64.40;;;;;;4952429;29;20047;-57
2023/09/27 11:34:57;;;;;;;12.95;7.55;;;29.50;65.30;;;;;;4952552;29;20046;-58
2023/09/27 11:38:09;;;;;;;19.40;7.53;;;29.40;66.10;;;;;;4952191;29;20042;-58
2023/09/27 11:41:14;;;;;;;13.13;6.57;;;29.50;67.30;;;;;;4952292;28;20062;-58
2023/09/27 11:44:19;;;;;;;11.70;6.05;;;29.50;65.80;;;;;;4950333;28;20054;-57
2023/09/27 11:47:24;;;;;;;10.00;6.15;;;29.60;65.50;;;;;;4950256;29;20061;-57
2023/09/27 11:50:28;;;;;;;11.80;6.57;;;29.60;63.30;;;;;;4950821;29;20046;-58
2023/09/27 11:53:32;;;;;;;12.75;6.88;;;29.70;63.60;;;;;;4951229;29;20058;-58
2023/09/27 11:56:36;;;;;;;10.05;6.75;;;29.70;64.50;;;;;;4951427;28;20043;-58
2023/09/27 11:59:40;;;;;;;16.75;6.85;;;29.70;64.30;;;;;;4951637;29;20066;-57
2023/09/27 12:02:44;;;;;;;11.20;6.32;;;29.70;64.30;;;;;;4939848;29;20110;-57
2023/09/27 12:05:48;;;;;;;9.32;5.90;;;29.60;64.20;;;;;;4951666;29;20050;-57
2023/09/27 12:08:54;;;;;;;9.40;6.40;;;29.70;64.90;;;;;;4952123;29;20124;-58
2023/09/27 12:11:58;;;;;;;10.77;6.28;;;29.70;64.10;;;;;;4951949;29;20046;-57
2023/09/27 12:15:05;;;;;;;14.15;6.43;;;29.60;65.20;;;;;;4952005;28;20050;-57
2023/09/27 12:18:09;;;;;;;11.40;6.82;;;29.60;65.00;;;;;;4951827;28;20065;-58
2023/09/27 12:21:14;;;;;;;11.00;6.30;;;29.60;64.60;;;;;;4951654;28;20502;-60
2023/09/27 12:24:19;;;;;;;11.30;6.65;;;29.60;64.60;;;;;;4952514;28;20106;-58
2023/09/27 12:27:23;;;;;;;10.07;6.78;;;29.60;65.20;;;;;;4942175;29;20046;-58
2023/09/27 12:30:27;;;;;;;10.50;6.22;;;29.60;65.00;;;;;;4955129;29;20122;-58
2023/09/27 12:33:32;;;;;;;13.75;6.55;;;29.50;65.30;;;;;;4954785;28;20383;-58
2023/09/27 12:36:37;;;;;;;13.00;7.03;;;29.50;65.10;;;;;;4954556;28;20078;-58
2023/09/27 12:39:44;;;;;;;12.80;6.88;;;29.50;64.90;;;;;;4955118;28;20043;-58
2023/09/27 12:42:48;;;;;;;15.68;6.53;;;29.50;64.30;;;;;;4954707;29;20070;-58
2023/09/27 12:45:51;;;;;;;11.52;5.78;;;29.50;64.20;;;;;;4955088;28;20387;-58
2023/09/27 12:48:55;;;;;;;17.65;6.05;;;29.50;63.60;;;;;;4954971;29;20054;-58
2023/09/27 12:51:59;;;;;;;20.63;7.20;;;29.50;64.00;;;;;;4954072;29;20046;-58
2023/09/27 12:55:05;;;;;;;13.00;6.90;;;29.50;64.90;;;;;;4954997;29;20054;-58
2023/09/27 12:58:11;;;;;;;14.63;7.47;;;29.50;66.10;;;;;;4954658;29;20502;-57
2023/09/27 13:01:16;;;;;;;18.98;6.65;;;29.50;65.30;;;;;;4942687;29;20211;-58
2023/09/27 13:04:20;;;;;;;10.82;6.88;;;29.50;64.50;;;;;;4954937;29;20046;-58
2023/09/27 13:07:24;;;;;;;8.93;6.68;;;29.50;64.90;;;;;;4954523;29;20075;-58
2023/09/27 13:10:28;;;;;;;15.38;6.32;;;29.50;65.10;;;;;;4954320;29;20367;-58
2023/09/27 13:13:32;;;;;;;15.75;7.10;;;29.40;63.70;;;;;;4954201;28;20043;-57
2023/09/27 13:16:36;;;;;;;10.85;5.80;;;29.40;64.30;;;;;;4954484;29;20066;-58
2023/09/27 13:19:39;;;;;;;12.35;6.35;;;29.40;64.50;;;;;;4954467;28;20066;-58
2023/09/27 13:22:43;;;;;;;10.13;6.72;;;29.40;64.30;;;;;;4954256;29;20058;-58
2023/09/27 13:25:55;;;;;;;10.35;6.18;;;29.40;65.00;;;;;;4954457;28;20054;-58
2023/09/27 13:28:59;;;;;;;13.32;6.30;;;29.40;65.00;;;;;;4954329;29;20058;-57
2023/09/27 13:32:03;;;;;;;10.57;6.93;;;29.40;64.60;;;;;;4953902;29;20046;-59
2023/09/27 13:35:07;;;;;;;20.05;6.43;;;29.40;65.00;;;;;;4953434;28;20120;-58
2023/09/27 13:38:11;;;;;;;9.98;5.88;;;29.40;64.90;;;;;;4954147;29;20509;-58
2023/09/27 13:41:15;;;;;;;14.07;7.55;;;29.30;64.70;;;;;;4953946;29;20110;-58
2023/09/27 13:44:20;;;;;;;16.52;7.80;;;29.30;65.40;;;;;;4953813;28;20489;-58
2023/09/27 13:47:24;;;;;;;19.60;7.18;;;29.40;65.70;;;;;;4953822;29;20069;-58
2023/09/27 13:50:31;;;;;;;16.45;7.10;;;29.40;65.90;;;;;;4942259;29;20418;-59
2023/09/27 13:53:35;;;;;;;16.73;7.03;;;29.30;66.30;;;;;;4953606;28;20113;-57
2023/09/27 13:56:40;;;;;;;11.05;6.85;;;29.30;65.80;;;;;;4953777;29;20398;-57
2023/09/27 13:59:45;;;;;;;16.27;7.07;;;29.30;65.60;;;;;;4953319;28;20042;-57
2023/09/27 14:02:48;;;;;;;14.68;6.60;;;29.20;65.80;;;;;;4953410;28;20518;-57
2023/09/27 14:05:53;;;;;;;12.40;7.75;;;29.20;65.20;;;;;;4953427;28;20042;-58
2023/09/27 14:08:57;;;;;;;11.38;7.32;;;29.20;66.20;;;;;;4953617;29;20038;-57
2023/09/27 14:12:01;;;;;;;13.85;7.53;;;29.20;66.30;;;;;;4952876;28;20042;-57
2023/09/27 14:15:06;;;;;;;11.60;7.30;;;29.20;66.00;;;;;;4953286;29;20046;-57
2023/09/27 14:18:10;;;;;;;13.77;7.10;;;29.20;66.50;;;;;;4953242;29;20506;-57
2023/09/27 14:21:14;;;;;;;14.95;7.63;;;29.10;66.60;;;;;;4953438;28;20406;-58
2023/09/27 14:24:19;;;;;;;16.05;8.05;;;29.10;66.10;;;;;;4952569;29;20046;-58
2023/09/27 14:27:23;;;;;;;16.95;7.90;;;29.10;67.00;;;;;;4953015;29;20046;-57
2023/09/27 14:30:26;;;;;;;12.18;7.65;;;29.10;66.60;;;;;;4953125;28;20042;-58
2023/09/27 14:33:31;;;;;;;15.45;7.75;;;29.10;66.80;;;;;;4952828;29;20402;-58
2023/09/27 14:36:37;;;;;;;14.15;8.43;;;29.00;67.40;;;;;;4953185;29;20042;-57
2023/09/27 14:39:40;;;;;;;15.80;8.05;;;29.00;68.50;;;;;;4953083;29;20054;-56
2023/09/27 14:42:44;;;;;;;13.15;7.65;;;29.00;68.00;;;;;;4952324;29;20062;-57
2023/09/27 14:45:49;;;;;;;17.77;7.75;;;29.00;67.80;;;;;;4952602;28;20054;-57
2023/09/27 14:48:53;;;;;;;14.40;7.60;;;29.50;67.00;;;;;;4952988;29;20042;-58
2023/09/27 14:51:57;;;;;;;17.30;8.15;;;30.70;65.00;;;;;;4952777;29;20046;-58
2023/09/27 14:55:02;;;;;;;16.25;7.30;;;32.30;64.10;;;;;;4952803;28;20050;-58
2023/09/27 14:58:09;;;;;;;18.38;7.28;;;33.10;62.20;;;;;;4952559;28;20071;-58
2023/09/27 15:01:15;;;;;;;18.50;7.80;;;32.60;61.20;;;;;;4952449;29;20050;-58
2023/09/27 15:04:19;;;;;;;13.40;7.15;;;33.00;61.50;;;;;;4952683;28;20058;-58
2023/09/27 15:07:23;;;;;;;13.05;6.72;;;32.60;62.20;;;;;;4952737;29;20046;-58
2023/09/27 15:10:27;;;;;;;18.42;8.02;;;32.70;61.00;;;;;;4950795;29;20502;-67
2023/09/27 15:13:31;;;;;;;23.95;18.42;;;31.70;62.50;;;;;;4949761;28;20466;-67
2023/09/27 15:16:35;;;;;;;15.27;9.63;;;31.00;63.70;;;;;;4952119;28;20395;-68
2023/09/27 15:19:40;;;;;;;15.90;7.82;;;30.50;64.20;;;;;;4952674;29;20066;-66
2023/09/27 15:22:44;;;;;;;15.73;7.70;;;30.10;65.30;;;;;;4952204;29;20058;-67
2023/09/27 15:25:48;;;;;;;16.40;8.00;;;29.90;65.50;;;;;;4952495;29;20050;-66
2023/09/27 15:28:52;;;;;;;17.83;8.68;;;29.60;65.70;;;;;;4952325;29;20073;-66
2023/09/27 15:31:56;;;;;;;20.58;8.05;;;29.40;66.20;;;;;;4951788;29;20156;-66
2023/09/27 15:34:59;;;;;;;20.00;7.85;;;29.30;66.40;;;;;;4952330;28;20058;-66
2023/09/27 15:38:03;;;;;;;20.25;8.55;;;29.20;66.40;;;;;;4951570;29;20042;-66
2023/09/27 15:41:07;;;;;;;15.20;8.38;;;29.10;66.80;;;;;;4952487;29;20054;-67
2023/09/27 15:44:12;;;;;;;15.60;7.50;;;29.00;67.10;;;;;;4952156;29;20063;-67
2023/09/27 15:47:16;;;;;;;15.82;8.23;;;29.00;66.80;;;;;;4952515;28;20046;-67
2023/09/27 15:50:20;;;;;;;14.75;8.77;;;28.90;66.90;;;;;;4952690;28;20078;-67
2023/09/27 15:53:28;;;;;;;19.83;8.43;;;28.90;67.40;;;;;;4951930;28;20058;-67
2023/09/27 15:56:33;;;;;;;17.65;8.15;;;28.80;67.40;;;;;;4952158;29;20046;-68